sensor_id;sensor_type;location;lat;lon;timestamp;P1;durP1;ratioP1;P2;durP2;ratioP2
67904;SDS011;54709;43.614;1.576;2022-07-29T00:02:12;5.88;;;1.50;;
67904;SDS011;54709;43.614;1.576;2022-07-29T00:04:37;3.63;;;1.40;;
67904;SDS011;54709;43.614;1.576;2022-07-29T00:07:03;3.95;;;1.52;;
67904;SDS011;54709;43.614;1.576;2022-07-29T00:09:29;3.70;;;1.40;;
67904;SDS011;54709;43.614;1.576;2022-07-29T00:11:56;4.18;;;1.42;;
67904;SDS011;54709;43.614;1.576;2022-07-29T00:14:23;1.85;;;1.40;;
67904;SDS011;54709;43.614;1.576;2022-07-29T00:16:49;2.75;;;1.40;;
67904;SDS011;54709;43.614;1.576;2022-07-29T00:19:14;2.13;;;1.40;;
67904;SDS011;54709;43.614;1.576;2022-07-29T00:21:39;4.28;;;1.50;;
67904;SDS011;54709;43.614;1.576;2022-07-29T00:24:05;7.75;;;1.90;;
67904;SDS011;54709;43.614;1.576;2022-07-29T00:26:30;7.15;;;1.92;;
67904;SDS011;54709;43.614;1.576;2022-07-29T00:29:00;7.30;;;1.90;;
67904;SDS011;54709;43.614;1.576;2022-07-29T00:31:27;7.07;;;1.83;;
67904;SDS011;54709;43.614;1.576;2022-07-29T00:33:53;5.00;;;1.95;;
67904;SDS011;54709;43.614;1.576;2022-07-29T00:36:19;3.00;;;1.45;;
67904;SDS011;54709;43.614;1.576;2022-07-29T00:38:46;3.50;;;1.67;;
67904;SDS011;54709;43.614;1.576;2022-07-29T00:41:14;4.30;;;1.58;;
67904;SDS011;54709;43.614;1.576;2022-07-29T00:43:40;3.20;;;1.52;;
67904;SDS011;54709;43.614;1.576;2022-07-29T00:46:06;5.38;;;1.70;;
67904;SDS011;54709;43.614;1.576;2022-07-29T00:48:31;3.20;;;1.42;;
67904;SDS011;54709;43.614;1.576;2022-07-29T00:50:57;7.82;;;2.13;;
67904;SDS011;54709;43.614;1.576;2022-07-29T00:53:23;3.53;;;1.80;;
67904;SDS011;54709;43.614;1.576;2022-07-29T00:55:49;3.70;;;1.60;;
67904;SDS011;54709;43.614;1.576;2022-07-29T00:58:14;7.18;;;1.70;;
67904;SDS011;54709;43.614;1.576;2022-07-29T01:00:40;2.70;;;1.60;;
67904;SDS011;54709;43.614;1.576;2022-07-29T01:03:06;4.43;;;1.73;;
67904;SDS011;54709;43.614;1.576;2022-07-29T01:05:32;6.57;;;1.60;;
67904;SDS011;54709;43.614;1.576;2022-07-29T01:07:57;4.03;;;1.70;;
67904;SDS011;54709;43.614;1.576;2022-07-29T01:10:24;4.95;;;1.50;;
67904;SDS011;54709;43.614;1.576;2022-07-29T01:12:50;4.45;;;1.40;;
67904;SDS011;54709;43.614;1.576;2022-07-29T01:15:16;4.57;;;1.80;;
67904;SDS011;54709;43.614;1.576;2022-07-29T01:20:23;2.53;;;1.27;;
67904;SDS011;54709;43.614;1.576;2022-07-29T01:23:08;2.55;;;1.23;;
67904;SDS011;54709;43.614;1.576;2022-07-29T01:31:45;4.13;;;1.60;;
67904;SDS011;54709;43.614;1.576;2022-07-29T01:37:22;3.08;;;1.40;;
67904;SDS011;54709;43.614;1.576;2022-07-29T01:39:55;6.18;;;1.40;;
67904;SDS011;54709;43.614;1.576;2022-07-29T01:47:43;2.83;;;1.40;;
67904;SDS011;54709;43.614;1.576;2022-07-29T01:50:12;6.25;;;1.30;;
67904;SDS011;54709;43.614;1.576;2022-07-29T01:55:35;3.03;;;1.40;;
67904;SDS011;54709;43.614;1.576;2022-07-29T01:58:04;3.00;;;1.20;;
67904;SDS011;54709;43.614;1.576;2022-07-29T02:00:31;3.72;;;1.40;;
67904;SDS011;54709;43.614;1.576;2022-07-29T02:02:58;3.83;;;1.20;;
67904;SDS011;54709;43.614;1.576;2022-07-29T02:05:25;2.97;;;1.13;;
67904;SDS011;54709;43.614;1.576;2022-07-29T02:07:52;4.57;;;1.38;;
67904;SDS011;54709;43.614;1.576;2022-07-29T02:10:22;2.90;;;1.45;;
67904;SDS011;54709;43.614;1.576;2022-07-29T02:12:50;6.43;;;1.88;;
67904;SDS011;54709;43.614;1.576;2022-07-29T02:15:16;2.75;;;1.42;;
67904;SDS011;54709;43.614;1.576;2022-07-29T02:17:44;6.78;;;1.58;;
67904;SDS011;54709;43.614;1.576;2022-07-29T02:20:11;2.55;;;1.40;;
67904;SDS011;54709;43.614;1.576;2022-07-29T02:22:38;2.70;;;1.20;;
67904;SDS011;54709;43.614;1.576;2022-07-29T02:25:04;4.60;;;1.13;;
67904;SDS011;54709;43.614;1.576;2022-07-29T02:27:31;5.15;;;1.52;;
67904;SDS011;54709;43.614;1.576;2022-07-29T02:29:58;3.50;;;1.40;;
67904;SDS011;54709;43.614;1.576;2022-07-29T02:32:25;4.40;;;1.40;;
67904;SDS011;54709;43.614;1.576;2022-07-29T02:34:52;5.38;;;1.80;;
67904;SDS011;54709;43.614;1.576;2022-07-29T02:37:19;2.85;;;1.52;;
67904;SDS011;54709;43.614;1.576;2022-07-29T02:39:45;9.18;;;1.70;;
67904;SDS011;54709;43.614;1.576;2022-07-29T02:42:15;3.78;;;1.50;;
67904;SDS011;54709;43.614;1.576;2022-07-29T02:44:41;3.08;;;1.75;;
67904;SDS011;54709;43.614;1.576;2022-07-29T02:47:11;6.55;;;1.42;;
67904;SDS011;54709;43.614;1.576;2022-07-29T02:49:45;5.70;;;1.38;;
67904;SDS011;54709;43.614;1.576;2022-07-29T02:52:18;6.05;;;1.50;;
67904;SDS011;54709;43.614;1.576;2022-07-29T02:54:50;4.70;;;1.50;;
67904;SDS011;54709;43.614;1.576;2022-07-29T02:57:41;4.45;;;1.30;;
67904;SDS011;54709;43.614;1.576;2022-07-29T03:00:26;2.72;;;1.27;;
67904;SDS011;54709;43.614;1.576;2022-07-29T03:02:54;2.88;;;1.42;;
67904;SDS011;54709;43.614;1.576;2022-07-29T03:05:21;3.00;;;1.30;;
67904;SDS011;54709;43.614;1.576;2022-07-29T03:07:51;10.10;;;1.73;;
67904;SDS011;54709;43.614;1.576;2022-07-29T03:10:20;3.10;;;1.35;;
67904;SDS011;54709;43.614;1.576;2022-07-29T03:12:46;3.58;;;1.60;;
67904;SDS011;54709;43.614;1.576;2022-07-29T03:15:12;7.50;;;1.40;;
67904;SDS011;54709;43.614;1.576;2022-07-29T03:17:38;4.80;;;1.52;;
67904;SDS011;54709;43.614;1.576;2022-07-29T03:20:04;4.30;;;1.40;;
67904;SDS011;54709;43.614;1.576;2022-07-29T03:22:31;5.10;;;1.42;;
67904;SDS011;54709;43.614;1.576;2022-07-29T03:24:56;3.72;;;1.30;;
67904;SDS011;54709;43.614;1.576;2022-07-29T03:27:22;4.40;;;1.38;;
67904;SDS011;54709;43.614;1.576;2022-07-29T03:29:47;4.88;;;1.55;;
67904;SDS011;54709;43.614;1.576;2022-07-29T03:32:13;4.50;;;1.52;;
67904;SDS011;54709;43.614;1.576;2022-07-29T03:34:38;4.63;;;1.50;;
67904;SDS011;54709;43.614;1.576;2022-07-29T03:37:04;4.80;;;1.60;;
67904;SDS011;54709;43.614;1.576;2022-07-29T03:39:31;3.08;;;1.50;;
67904;SDS011;54709;43.614;1.576;2022-07-29T03:41:59;2.78;;;1.33;;
67904;SDS011;54709;43.614;1.576;2022-07-29T03:44:25;3.63;;;1.10;;
67904;SDS011;54709;43.614;1.576;2022-07-29T03:46:51;4.30;;;1.15;;
67904;SDS011;54709;43.614;1.576;2022-07-29T03:49:17;3.72;;;1.30;;
67904;SDS011;54709;43.614;1.576;2022-07-29T03:51:43;4.47;;;1.38;;
67904;SDS011;54709;43.614;1.576;2022-07-29T03:54:09;5.63;;;1.50;;
67904;SDS011;54709;43.614;1.576;2022-07-29T03:56:37;3.78;;;1.40;;
67904;SDS011;54709;43.614;1.576;2022-07-29T03:59:03;4.25;;;1.50;;
67904;SDS011;54709;43.614;1.576;2022-07-29T04:01:29;2.75;;;1.30;;
67904;SDS011;54709;43.614;1.576;2022-07-29T04:03:55;4.07;;;1.40;;
67904;SDS011;54709;43.614;1.576;2022-07-29T04:06:20;3.10;;;1.25;;
67904;SDS011;54709;43.614;1.576;2022-07-29T04:08:46;6.00;;;1.40;;
67904;SDS011;54709;43.614;1.576;2022-07-29T04:11:11;4.40;;;1.55;;
67904;SDS011;54709;43.614;1.576;2022-07-29T04:13:37;5.97;;;1.67;;
67904;SDS011;54709;43.614;1.576;2022-07-29T04:16:03;5.32;;;1.52;;
67904;SDS011;54709;43.614;1.576;2022-07-29T04:18:28;5.35;;;1.50;;
67904;SDS011;54709;43.614;1.576;2022-07-29T04:20:54;4.00;;;1.60;;
67904;SDS011;54709;43.614;1.576;2022-07-29T04:23:19;4.75;;;1.60;;
67904;SDS011;54709;43.614;1.576;2022-07-29T04:25:44;5.45;;;1.58;;
67904;SDS011;54709;43.614;1.576;2022-07-29T04:28:10;2.80;;;1.30;;
67904;SDS011;54709;43.614;1.576;2022-07-29T04:30:36;3.70;;;1.75;;
67904;SDS011;54709;43.614;1.576;2022-07-29T04:33:02;6.85;;;1.42;;
67904;SDS011;54709;43.614;1.576;2022-07-29T04:35:30;4.38;;;1.42;;
67904;SDS011;54709;43.614;1.576;2022-07-29T04:37:55;7.20;;;1.92;;
67904;SDS011;54709;43.614;1.576;2022-07-29T04:40:21;4.20;;;1.60;;
67904;SDS011;54709;43.614;1.576;2022-07-29T04:42:46;4.63;;;1.77;;
67904;SDS011;54709;43.614;1.576;2022-07-29T04:45:12;3.88;;;1.60;;
67904;SDS011;54709;43.614;1.576;2022-07-29T04:47:37;4.07;;;1.25;;
67904;SDS011;54709;43.614;1.576;2022-07-29T04:50:03;3.28;;;1.52;;
67904;SDS011;54709;43.614;1.576;2022-07-29T04:52:30;4.72;;;1.73;;
67904;SDS011;54709;43.614;1.576;2022-07-29T04:54:55;3.55;;;1.40;;
67904;SDS011;54709;43.614;1.576;2022-07-29T04:57:21;5.03;;;1.90;;
67904;SDS011;54709;43.614;1.576;2022-07-29T04:59:46;4.85;;;2.03;;
67904;SDS011;54709;43.614;1.576;2022-07-29T05:02:11;4.95;;;1.80;;
67904;SDS011;54709;43.614;1.576;2022-07-29T05:04:37;5.95;;;1.73;;
67904;SDS011;54709;43.614;1.576;2022-07-29T05:07:02;3.03;;;1.60;;
67904;SDS011;54709;43.614;1.576;2022-07-29T05:09:27;4.18;;;1.50;;
67904;SDS011;54709;43.614;1.576;2022-07-29T05:11:53;3.70;;;1.58;;
67904;SDS011;54709;43.614;1.576;2022-07-29T05:14:18;4.55;;;1.80;;
67904;SDS011;54709;43.614;1.576;2022-07-29T05:16:43;4.50;;;1.75;;
67904;SDS011;54709;43.614;1.576;2022-07-29T05:19:09;4.68;;;1.73;;
67904;SDS011;54709;43.614;1.576;2022-07-29T05:21:34;3.67;;;1.55;;
67904;SDS011;54709;43.614;1.576;2022-07-29T05:24:00;6.47;;;1.83;;
67904;SDS011;54709;43.614;1.576;2022-07-29T05:26:25;7.88;;;2.20;;
67904;SDS011;54709;43.614;1.576;2022-07-29T05:28:51;8.40;;;2.08;;
67904;SDS011;54709;43.614;1.576;2022-07-29T05:31:16;19.88;;;3.88;;
67904;SDS011;54709;43.614;1.576;2022-07-29T05:33:42;10.55;;;3.75;;
67904;SDS011;54709;43.614;1.576;2022-07-29T05:36:07;12.63;;;5.72;;
67904;SDS011;54709;43.614;1.576;2022-07-29T05:38:35;17.85;;;5.32;;
67904;SDS011;54709;43.614;1.576;2022-07-29T05:41:01;17.00;;;3.80;;
67904;SDS011;54709;43.614;1.576;2022-07-29T05:43:27;5.97;;;2.90;;
67904;SDS011;54709;43.614;1.576;2022-07-29T05:45:52;8.43;;;3.13;;
67904;SDS011;54709;43.614;1.576;2022-07-29T05:48:18;6.53;;;2.90;;
67904;SDS011;54709;43.614;1.576;2022-07-29T05:50:43;8.98;;;3.28;;
67904;SDS011;54709;43.614;1.576;2022-07-29T05:53:08;10.93;;;3.17;;
67904;SDS011;54709;43.614;1.576;2022-07-29T05:55:34;6.63;;;2.97;;
67904;SDS011;54709;43.614;1.576;2022-07-29T05:57:59;11.73;;;3.53;;
67904;SDS011;54709;43.614;1.576;2022-07-29T06:00:25;8.55;;;2.90;;
67904;SDS011;54709;43.614;1.576;2022-07-29T06:02:50;5.57;;;2.95;;
67904;SDS011;54709;43.614;1.576;2022-07-29T06:05:16;7.90;;;3.08;;
67904;SDS011;54709;43.614;1.576;2022-07-29T06:07:42;6.10;;;3.15;;
67904;SDS011;54709;43.614;1.576;2022-07-29T06:10:07;7.65;;;2.90;;
67904;SDS011;54709;43.614;1.576;2022-07-29T06:12:33;6.97;;;3.45;;
67904;SDS011;54709;43.614;1.576;2022-07-29T06:14:58;12.82;;;3.88;;
67904;SDS011;54709;43.614;1.576;2022-07-29T06:17:23;5.78;;;3.38;;
67904;SDS011;54709;43.614;1.576;2022-07-29T06:19:49;8.15;;;3.42;;
67904;SDS011;54709;43.614;1.576;2022-07-29T06:22:15;8.85;;;3.25;;
67904;SDS011;54709;43.614;1.576;2022-07-29T06:24:41;11.60;;;2.92;;
67904;SDS011;54709;43.614;1.576;2022-07-29T06:27:08;7.68;;;3.10;;
67904;SDS011;54709;43.614;1.576;2022-07-29T06:29:37;9.30;;;3.10;;
67904;SDS011;54709;43.614;1.576;2022-07-29T06:32:03;6.65;;;2.88;;
67904;SDS011;54709;43.614;1.576;2022-07-29T06:34:29;8.38;;;3.40;;
67904;SDS011;54709;43.614;1.576;2022-07-29T06:36:54;11.45;;;3.30;;
67904;SDS011;54709;43.614;1.576;2022-07-29T06:39:20;5.68;;;2.88;;
67904;SDS011;54709;43.614;1.576;2022-07-29T06:41:46;12.25;;;3.50;;
67904;SDS011;54709;43.614;1.576;2022-07-29T06:44:13;6.60;;;2.85;;
67904;SDS011;54709;43.614;1.576;2022-07-29T06:46:38;8.98;;;3.00;;
67904;SDS011;54709;43.614;1.576;2022-07-29T06:49:04;9.15;;;3.63;;
67904;SDS011;54709;43.614;1.576;2022-07-29T06:51:29;5.60;;;3.25;;
67904;SDS011;54709;43.614;1.576;2022-07-29T06:53:55;8.07;;;3.00;;
67904;SDS011;54709;43.614;1.576;2022-07-29T06:56:22;8.73;;;3.28;;
67904;SDS011;54709;43.614;1.576;2022-07-29T06:58:47;8.57;;;3.10;;
67904;SDS011;54709;43.614;1.576;2022-07-29T07:01:12;4.75;;;2.92;;
67904;SDS011;54709;43.614;1.576;2022-07-29T07:03:38;8.98;;;3.28;;
67904;SDS011;54709;43.614;1.576;2022-07-29T07:06:03;5.53;;;3.67;;
67904;SDS011;54709;43.614;1.576;2022-07-29T07:08:29;6.70;;;3.13;;
67904;SDS011;54709;43.614;1.576;2022-07-29T07:10:54;7.07;;;3.42;;
67904;SDS011;54709;43.614;1.576;2022-07-29T07:13:21;5.60;;;3.33;;
67904;SDS011;54709;43.614;1.576;2022-07-29T07:15:46;6.60;;;3.67;;
67904;SDS011;54709;43.614;1.576;2022-07-29T07:18:13;5.65;;;3.88;;
67904;SDS011;54709;43.614;1.576;2022-07-29T07:20:39;9.13;;;3.70;;
67904;SDS011;54709;43.614;1.576;2022-07-29T07:23:05;9.52;;;3.80;;
67904;SDS011;54709;43.614;1.576;2022-07-29T07:25:31;8.43;;;3.60;;
67904;SDS011;54709;43.614;1.576;2022-07-29T07:27:56;7.85;;;3.30;;
67904;SDS011;54709;43.614;1.576;2022-07-29T07:30:22;6.85;;;3.58;;
67904;SDS011;54709;43.614;1.576;2022-07-29T07:32:47;5.70;;;2.85;;
67904;SDS011;54709;43.614;1.576;2022-07-29T07:35:13;6.63;;;3.45;;
67904;SDS011;54709;43.614;1.576;2022-07-29T07:37:39;5.72;;;3.13;;
67904;SDS011;54709;43.614;1.576;2022-07-29T07:40:08;7.07;;;3.70;;
67904;SDS011;54709;43.614;1.576;2022-07-29T07:42:35;12.27;;;3.45;;
67904;SDS011;54709;43.614;1.576;2022-07-29T07:45:00;9.70;;;3.50;;
67904;SDS011;54709;43.614;1.576;2022-07-29T07:47:26;7.57;;;3.20;;
67904;SDS011;54709;43.614;1.576;2022-07-29T07:49:51;7.35;;;4.05;;
67904;SDS011;54709;43.614;1.576;2022-07-29T07:52:18;6.50;;;3.40;;
67904;SDS011;54709;43.614;1.576;2022-07-29T07:54:45;7.20;;;3.10;;
67904;SDS011;54709;43.614;1.576;2022-07-29T07:57:11;8.38;;;3.13;;
67904;SDS011;54709;43.614;1.576;2022-07-29T07:59:37;6.97;;;3.40;;
67904;SDS011;54709;43.614;1.576;2022-07-29T08:02:03;7.22;;;3.50;;
67904;SDS011;54709;43.614;1.576;2022-07-29T08:04:28;7.13;;;3.50;;
67904;SDS011;54709;43.614;1.576;2022-07-29T08:06:54;6.43;;;2.83;;
67904;SDS011;54709;43.614;1.576;2022-07-29T08:09:20;7.35;;;3.50;;
67904;SDS011;54709;43.614;1.576;2022-07-29T08:11:46;5.80;;;3.15;;
67904;SDS011;54709;43.614;1.576;2022-07-29T08:14:11;4.10;;;3.22;;
67904;SDS011;54709;43.614;1.576;2022-07-29T08:16:38;5.10;;;2.95;;
67904;SDS011;54709;43.614;1.576;2022-07-29T08:19:04;8.05;;;3.47;;
67904;SDS011;54709;43.614;1.576;2022-07-29T08:21:30;8.50;;;3.70;;
67904;SDS011;54709;43.614;1.576;2022-07-29T08:23:55;10.55;;;3.42;;
67904;SDS011;54709;43.614;1.576;2022-07-29T08:26:41;8.43;;;3.42;;
67904;SDS011;54709;43.614;1.576;2022-07-29T08:29:07;7.03;;;3.20;;
67904;SDS011;54709;43.614;1.576;2022-07-29T08:31:32;7.57;;;3.35;;
67904;SDS011;54709;43.614;1.576;2022-07-29T08:33:58;9.88;;;3.60;;
67904;SDS011;54709;43.614;1.576;2022-07-29T08:36:24;9.20;;;3.28;;
67904;SDS011;54709;43.614;1.576;2022-07-29T08:38:50;7.38;;;3.25;;
67904;SDS011;54709;43.614;1.576;2022-07-29T08:41:15;8.25;;;3.08;;
67904;SDS011;54709;43.614;1.576;2022-07-29T08:43:43;10.50;;;3.08;;
67904;SDS011;54709;43.614;1.576;2022-07-29T08:46:09;9.80;;;3.25;;
67904;SDS011;54709;43.614;1.576;2022-07-29T08:48:35;4.72;;;2.95;;
67904;SDS011;54709;43.614;1.576;2022-07-29T08:51:01;7.38;;;3.28;;
67904;SDS011;54709;43.614;1.576;2022-07-29T08:53:27;4.85;;;2.80;;
67904;SDS011;54709;43.614;1.576;2022-07-29T08:55:53;9.32;;;3.30;;
67904;SDS011;54709;43.614;1.576;2022-07-29T08:58:19;7.80;;;2.83;;
67904;SDS011;54709;43.614;1.576;2022-07-29T09:00:48;7.00;;;2.60;;
67904;SDS011;54709;43.614;1.576;2022-07-29T09:03:18;5.53;;;3.00;;
67904;SDS011;54709;43.614;1.576;2022-07-29T09:05:47;6.93;;;3.00;;
67904;SDS011;54709;43.614;1.576;2022-07-29T09:08:13;8.45;;;2.65;;
67904;SDS011;54709;43.614;1.576;2022-07-29T09:10:40;6.20;;;2.58;;
67904;SDS011;54709;43.614;1.576;2022-07-29T09:13:05;5.43;;;2.72;;
67904;SDS011;54709;43.614;1.576;2022-07-29T09:15:31;5.90;;;2.83;;
67904;SDS011;54709;43.614;1.576;2022-07-29T09:17:56;5.22;;;2.70;;
67904;SDS011;54709;43.614;1.576;2022-07-29T09:20:23;5.38;;;2.60;;
67904;SDS011;54709;43.614;1.576;2022-07-29T09:22:49;7.53;;;2.80;;
67904;SDS011;54709;43.614;1.576;2022-07-29T09:25:36;5.97;;;2.80;;
67904;SDS011;54709;43.614;1.576;2022-07-29T09:30:35;5.80;;;2.60;;
67904;SDS011;54709;43.614;1.576;2022-07-29T09:33:02;6.15;;;2.60;;
67904;SDS011;54709;43.614;1.576;2022-07-29T09:35:31;5.70;;;2.60;;
67904;SDS011;54709;43.614;1.576;2022-07-29T09:37:56;6.38;;;2.38;;
67904;SDS011;54709;43.614;1.576;2022-07-29T09:40:23;6.57;;;2.42;;
67904;SDS011;54709;43.614;1.576;2022-07-29T09:42:50;5.68;;;2.60;;
67904;SDS011;54709;43.614;1.576;2022-07-29T09:47:54;6.72;;;2.45;;
67904;SDS011;54709;43.614;1.576;2022-07-29T09:50:22;5.00;;;2.78;;
67904;SDS011;54709;43.614;1.576;2022-07-29T09:52:51;8.80;;;2.92;;
67904;SDS011;54709;43.614;1.576;2022-07-29T09:55:18;6.43;;;2.60;;
67904;SDS011;54709;43.614;1.576;2022-07-29T09:57:44;7.03;;;2.70;;
67904;SDS011;54709;43.614;1.576;2022-07-29T10:00:14;10.90;;;2.70;;
67904;SDS011;54709;43.614;1.576;2022-07-29T10:02:44;8.32;;;2.80;;
67904;SDS011;54709;43.614;1.576;2022-07-29T10:07:50;5.32;;;2.55;;
67904;SDS011;54709;43.614;1.576;2022-07-29T10:10:23;7.50;;;2.22;;
67904;SDS011;54709;43.614;1.576;2022-07-29T10:13:01;6.97;;;1.92;;
67904;SDS011;54709;43.614;1.576;2022-07-29T10:15:32;8.00;;;1.80;;
67904;SDS011;54709;43.614;1.576;2022-07-29T10:17:58;4.68;;;1.50;;
67904;SDS011;54709;43.614;1.576;2022-07-29T10:20:25;4.50;;;1.83;;
67904;SDS011;54709;43.614;1.576;2022-07-29T10:22:52;2.63;;;1.40;;
67904;SDS011;54709;43.614;1.576;2022-07-29T10:25:18;4.53;;;1.40;;
67904;SDS011;54709;43.614;1.576;2022-07-29T10:27:46;3.38;;;1.15;;
67904;SDS011;54709;43.614;1.576;2022-07-29T10:30:13;4.60;;;1.30;;
67904;SDS011;54709;43.614;1.576;2022-07-29T10:44:02;6.25;;;1.40;;
67904;SDS011;54709;43.614;1.576;2022-07-29T10:46:38;3.00;;;1.10;;
67904;SDS011;54709;43.614;1.576;2022-07-29T10:54:36;3.28;;;1.15;;
67904;SDS011;54709;43.614;1.576;2022-07-29T11:05:17;2.97;;;1.17;;
67904;SDS011;54709;43.614;1.576;2022-07-29T11:10:37;4.03;;;1.33;;
67904;SDS011;54709;43.614;1.576;2022-07-29T11:13:02;4.75;;;1.50;;
67904;SDS011;54709;43.614;1.576;2022-07-29T11:15:28;4.43;;;1.50;;
67904;SDS011;54709;43.614;1.576;2022-07-29T11:26:16;4.15;;;1.50;;
67904;SDS011;54709;43.614;1.576;2022-07-29T11:31:45;4.30;;;1.92;;
67904;SDS011;54709;43.614;1.576;2022-07-29T11:39:37;4.00;;;1.52;;
67904;SDS011;54709;43.614;1.576;2022-07-29T11:47:41;3.15;;;1.38;;
67904;SDS011;54709;43.614;1.576;2022-07-29T11:50:34;3.17;;;1.60;;
67904;SDS011;54709;43.614;1.576;2022-07-29T11:53:01;3.55;;;1.40;;
67904;SDS011;54709;43.614;1.576;2022-07-29T11:55:28;5.75;;;2.05;;
67904;SDS011;54709;43.614;1.576;2022-07-29T11:57:57;6.30;;;1.50;;
67904;SDS011;54709;43.614;1.576;2022-07-29T12:02:52;7.70;;;1.75;;
67904;SDS011;54709;43.614;1.576;2022-07-29T12:05:18;5.90;;;1.70;;
67904;SDS011;54709;43.614;1.576;2022-07-29T12:07:44;5.22;;;1.60;;
67904;SDS011;54709;43.614;1.576;2022-07-29T12:10:10;3.17;;;1.60;;
67904;SDS011;54709;43.614;1.576;2022-07-29T12:12:35;4.70;;;1.70;;
67904;SDS011;54709;43.614;1.576;2022-07-29T12:15:11;2.78;;;1.63;;
67904;SDS011;54709;43.614;1.576;2022-07-29T12:17:38;7.63;;;1.80;;
67904;SDS011;54709;43.614;1.576;2022-07-29T12:20:04;8.15;;;1.70;;
67904;SDS011;54709;43.614;1.576;2022-07-29T12:22:31;4.85;;;1.55;;
67904;SDS011;54709;43.614;1.576;2022-07-29T12:25:01;5.10;;;1.67;;
67904;SDS011;54709;43.614;1.576;2022-07-29T12:27:37;4.50;;;1.48;;
67904;SDS011;54709;43.614;1.576;2022-07-29T12:30:09;3.40;;;1.48;;
67904;SDS011;54709;43.614;1.576;2022-07-29T12:32:39;3.73;;;1.60;;
67904;SDS011;54709;43.614;1.576;2022-07-29T12:35:08;3.65;;;1.63;;
67904;SDS011;54709;43.614;1.576;2022-07-29T12:37:35;5.15;;;1.52;;
67904;SDS011;54709;43.614;1.576;2022-07-29T12:40:06;5.03;;;1.67;;
67904;SDS011;54709;43.614;1.576;2022-07-29T12:42:33;7.88;;;1.85;;
67904;SDS011;54709;43.614;1.576;2022-07-29T12:44:58;4.35;;;1.88;;
67904;SDS011;54709;43.614;1.576;2022-07-29T12:47:24;2.60;;;1.65;;
67904;SDS011;54709;43.614;1.576;2022-07-29T12:49:50;5.00;;;1.83;;
67904;SDS011;54709;43.614;1.576;2022-07-29T12:52:32;3.08;;;1.50;;
67904;SDS011;54709;43.614;1.576;2022-07-29T12:54:59;4.43;;;1.52;;
67904;SDS011;54709;43.614;1.576;2022-07-29T12:57:25;2.97;;;1.50;;
67904;SDS011;54709;43.614;1.576;2022-07-29T13:00:05;4.78;;;2.17;;
67904;SDS011;54709;43.614;1.576;2022-07-29T13:02:35;3.75;;;1.67;;
67904;SDS011;54709;43.614;1.576;2022-07-29T13:05:02;12.75;;;2.17;;
67904;SDS011;54709;43.614;1.576;2022-07-29T13:07:30;5.57;;;2.17;;
67904;SDS011;54709;43.614;1.576;2022-07-29T13:13:06;6.15;;;2.08;;
67904;SDS011;54709;43.614;1.576;2022-07-29T13:15:38;5.22;;;1.90;;
67904;SDS011;54709;43.614;1.576;2022-07-29T13:18:06;4.03;;;1.83;;
67904;SDS011;54709;43.614;1.576;2022-07-29T13:20:51;6.10;;;1.83;;
67904;SDS011;54709;43.614;1.576;2022-07-29T13:23:17;4.85;;;1.70;;
67904;SDS011;54709;43.614;1.576;2022-07-29T13:25:42;5.93;;;1.80;;
67904;SDS011;54709;43.614;1.576;2022-07-29T13:28:08;5.43;;;1.77;;
67904;SDS011;54709;43.614;1.576;2022-07-29T13:30:33;3.83;;;1.90;;
67904;SDS011;54709;43.614;1.576;2022-07-29T13:32:58;3.78;;;1.70;;
67904;SDS011;54709;43.614;1.576;2022-07-29T13:35:24;10.07;;;2.03;;
67904;SDS011;54709;43.614;1.576;2022-07-29T13:37:49;5.00;;;1.60;;
67904;SDS011;54709;43.614;1.576;2022-07-29T13:40:14;3.53;;;1.42;;
67904;SDS011;54709;43.614;1.576;2022-07-29T13:42:40;3.70;;;1.50;;
67904;SDS011;54709;43.614;1.576;2022-07-29T13:45:06;4.40;;;1.50;;
67904;SDS011;54709;43.614;1.576;2022-07-29T13:47:32;5.90;;;1.52;;
67904;SDS011;54709;43.614;1.576;2022-07-29T13:49:57;2.38;;;1.20;;
67904;SDS011;54709;43.614;1.576;2022-07-29T13:52:23;4.10;;;1.77;;
67904;SDS011;54709;43.614;1.576;2022-07-29T13:54:48;5.15;;;1.77;;
67904;SDS011;54709;43.614;1.576;2022-07-29T13:57:14;5.30;;;1.70;;
67904;SDS011;54709;43.614;1.576;2022-07-29T13:59:39;5.80;;;1.50;;
67904;SDS011;54709;43.614;1.576;2022-07-29T14:02:07;4.93;;;1.65;;
67904;SDS011;54709;43.614;1.576;2022-07-29T14:04:33;3.20;;;1.77;;
67904;SDS011;54709;43.614;1.576;2022-07-29T14:06:58;4.40;;;1.67;;
67904;SDS011;54709;43.614;1.576;2022-07-29T14:09:23;6.60;;;1.40;;
67904;SDS011;54709;43.614;1.576;2022-07-29T14:11:49;5.28;;;1.60;;
67904;SDS011;54709;43.614;1.576;2022-07-29T14:14:16;4.47;;;1.88;;
67904;SDS011;54709;43.614;1.576;2022-07-29T14:16:41;2.85;;;1.73;;
67904;SDS011;54709;43.614;1.576;2022-07-29T14:19:07;3.42;;;1.30;;
67904;SDS011;54709;43.614;1.576;2022-07-29T14:21:32;4.25;;;1.83;;
67904;SDS011;54709;43.614;1.576;2022-07-29T14:23:58;4.35;;;1.40;;
67904;SDS011;54709;43.614;1.576;2022-07-29T14:26:23;5.75;;;1.70;;
67904;SDS011;54709;43.614;1.576;2022-07-29T14:28:48;8.05;;;1.80;;
67904;SDS011;54709;43.614;1.576;2022-07-29T14:31:14;4.32;;;1.60;;
67904;SDS011;54709;43.614;1.576;2022-07-29T14:33:40;4.07;;;1.67;;
67904;SDS011;54709;43.614;1.576;2022-07-29T14:36:05;4.25;;;1.80;;
67904;SDS011;54709;43.614;1.576;2022-07-29T14:38:31;2.80;;;1.40;;
67904;SDS011;54709;43.614;1.576;2022-07-29T14:40:56;6.75;;;1.70;;
67904;SDS011;54709;43.614;1.576;2022-07-29T14:43:22;5.68;;;1.85;;
67904;SDS011;54709;43.614;1.576;2022-07-29T14:45:47;4.63;;;1.58;;
67904;SDS011;54709;43.614;1.576;2022-07-29T14:48:12;3.72;;;1.58;;
67904;SDS011;54709;43.614;1.576;2022-07-29T14:50:38;5.53;;;1.58;;
67904;SDS011;54709;43.614;1.576;2022-07-29T14:53:03;4.85;;;1.52;;
67904;SDS011;54709;43.614;1.576;2022-07-29T14:55:29;3.47;;;1.50;;
67904;SDS011;54709;43.614;1.576;2022-07-29T14:57:54;6.43;;;1.98;;
67904;SDS011;54709;43.614;1.576;2022-07-29T15:00:20;3.92;;;1.70;;
67904;SDS011;54709;43.614;1.576;2022-07-29T15:02:46;2.92;;;1.60;;
67904;SDS011;54709;43.614;1.576;2022-07-29T15:05:12;2.42;;;1.35;;
67904;SDS011;54709;43.614;1.576;2022-07-29T15:07:37;5.80;;;1.98;;
67904;SDS011;54709;43.614;1.576;2022-07-29T15:10:02;3.25;;;1.33;;
67904;SDS011;54709;43.614;1.576;2022-07-29T15:12:29;7.45;;;1.80;;
67904;SDS011;54709;43.614;1.576;2022-07-29T15:14:55;6.90;;;1.73;;
67904;SDS011;54709;43.614;1.576;2022-07-29T15:17:21;11.05;;;1.83;;
67904;SDS011;54709;43.614;1.576;2022-07-29T15:19:46;2.97;;;1.58;;
67904;SDS011;54709;43.614;1.576;2022-07-29T15:22:11;3.88;;;1.80;;
67904;SDS011;54709;43.614;1.576;2022-07-29T15:24:37;3.05;;;1.38;;
67904;SDS011;54709;43.614;1.576;2022-07-29T15:27:02;6.05;;;1.55;;
67904;SDS011;54709;43.614;1.576;2022-07-29T15:29:27;3.05;;;1.40;;
67904;SDS011;54709;43.614;1.576;2022-07-29T15:31:53;3.97;;;1.65;;
67904;SDS011;54709;43.614;1.576;2022-07-29T15:34:18;4.43;;;1.73;;
67904;SDS011;54709;43.614;1.576;2022-07-29T15:36:45;6.03;;;2.05;;
67904;SDS011;54709;43.614;1.576;2022-07-29T15:39:10;3.20;;;1.40;;
67904;SDS011;54709;43.614;1.576;2022-07-29T15:41:36;4.80;;;1.58;;
67904;SDS011;54709;43.614;1.576;2022-07-29T15:44:01;2.25;;;1.58;;
67904;SDS011;54709;43.614;1.576;2022-07-29T15:46:26;6.22;;;1.83;;
67904;SDS011;54709;43.614;1.576;2022-07-29T15:49:10;4.15;;;1.50;;
67904;SDS011;54709;43.614;1.576;2022-07-29T15:51:36;2.70;;;1.33;;
67904;SDS011;54709;43.614;1.576;2022-07-29T15:54:02;4.90;;;1.38;;
67904;SDS011;54709;43.614;1.576;2022-07-29T15:56:28;5.45;;;1.40;;
67904;SDS011;54709;43.614;1.576;2022-07-29T15:58:54;4.88;;;1.90;;
67904;SDS011;54709;43.614;1.576;2022-07-29T16:01:20;5.80;;;1.63;;
67904;SDS011;54709;43.614;1.576;2022-07-29T16:03:45;2.85;;;1.50;;
67904;SDS011;54709;43.614;1.576;2022-07-29T16:06:11;7.60;;;1.90;;
67904;SDS011;54709;43.614;1.576;2022-07-29T16:08:36;5.05;;;1.45;;
67904;SDS011;54709;43.614;1.576;2022-07-29T16:11:02;5.78;;;1.27;;